createdAt,value
2019-05-11T00:00:23.031Z,4.20
2019-05-11T00:02:49.068Z,3.60
2019-05-11T00:05:15.211Z,4.33
2019-05-11T00:07:41.232Z,3.53
2019-05-11T00:10:07.467Z,3.50
2019-05-11T00:12:33.489Z,3.70
2019-05-11T00:14:59.540Z,3.23
2019-05-11T00:17:25.547Z,3.63
2019-05-11T00:19:51.567Z,3.63
2019-05-11T00:22:17.611Z,3.70
2019-05-11T00:24:43.643Z,4.07
2019-05-11T00:27:09.697Z,3.60
2019-05-11T00:29:35.769Z,4.70
2019-05-11T00:32:01.887Z,4.40
2019-05-11T00:34:27.897Z,3.53
2019-05-11T00:36:53.961Z,4.40
2019-05-11T00:39:19.968Z,4.63
2019-05-11T00:41:46.069Z,4.83
2019-05-11T00:44:12.092Z,4.47
2019-05-11T00:46:38.134Z,5.00
2019-05-11T00:49:04.142Z,5.10
2019-05-11T00:51:30.196Z,5.07
2019-05-11T00:53:56.267Z,5.77
2019-05-11T00:56:22.385Z,5.40
2019-05-11T00:58:50.919Z,5.87
2019-05-11T01:01:16.367Z,5.20
2019-05-11T01:03:42.387Z,5.57
2019-05-11T01:06:08.461Z,5.57
2019-05-11T01:08:34.569Z,5.30
2019-05-11T01:11:01.408Z,5.67
2019-05-11T01:13:27.419Z,5.70
2019-05-11T01:15:53.447Z,6.17
2019-05-11T01:18:19.490Z,5.73
2019-05-11T01:20:45.515Z,5.30
2019-05-11T01:23:11.588Z,5.13
2019-05-11T01:25:37.608Z,4.93
2019-05-11T01:28:03.640Z,6.60
2019-05-11T01:30:29.658Z,5.67
2019-05-11T01:32:55.699Z,6.13
2019-05-11T01:35:21.776Z,7.58
2019-05-11T01:37:47.847Z,6.83
2019-05-11T01:40:14.252Z,5.60
2019-05-11T01:42:40.287Z,6.13
2019-05-11T01:45:06.628Z,6.67
2019-05-11T01:47:32.668Z,6.73
2019-05-11T01:49:58.666Z,6.83
2019-05-11T01:52:24.704Z,6.13
2019-05-11T01:54:50.727Z,7.00
2019-05-11T01:57:16.781Z,5.80
2019-05-11T01:59:42.793Z,7.70
2019-05-11T02:02:08.842Z,6.17
2019-05-11T02:04:34.865Z,6.47
2019-05-11T02:07:01.460Z,8.43
2019-05-11T02:09:27.471Z,7.70
2019-05-11T02:11:53.513Z,7.37
2019-05-11T02:14:19.535Z,7.10
2019-05-11T02:16:45.607Z,8.23
2019-05-11T02:19:11.635Z,8.10
2019-05-11T02:21:37.651Z,7.73
2019-05-11T02:24:03.691Z,7.87
2019-05-11T02:26:29.708Z,6.93
2019-05-11T02:28:55.742Z,7.73
2019-05-11T02:31:21.789Z,7.37
2019-05-11T02:33:47.889Z,7.30
2019-05-11T02:36:13.920Z,6.67
2019-05-11T02:38:39.960Z,7.47
2019-05-11T02:41:05.990Z,7.03
2019-05-11T02:43:32.023Z,6.40
2019-05-11T02:45:58.044Z,6.43
2019-05-11T02:48:24.076Z,6.20
2019-05-11T02:50:51.285Z,5.97
2019-05-11T02:53:17.460Z,5.93
2019-05-11T02:55:45.705Z,4.60
2019-05-11T02:58:11.736Z,4.90
2019-05-11T03:00:42.726Z,5.00
2019-05-11T03:03:08.778Z,4.70
2019-05-11T03:05:35.008Z,5.78
2019-05-11T03:08:01.117Z,4.60
2019-05-11T03:10:27.143Z,6.07
2019-05-11T03:12:53.180Z,4.63
2019-05-11T03:15:19.224Z,4.73
2019-05-11T03:17:45.250Z,4.10
2019-05-11T03:20:11.378Z,3.70
2019-05-11T03:22:37.395Z,4.23
2019-05-11T03:25:04.552Z,4.77
2019-05-11T03:27:30.589Z,4.03
2019-05-11T03:30:00.466Z,3.67
2019-05-11T03:32:24.626Z,3.93
2019-05-11T03:34:51.111Z,3.20
2019-05-11T03:37:17.126Z,3.80
2019-05-11T03:39:43.185Z,3.17
2019-05-11T03:42:14.609Z,3.07
2019-05-11T03:44:37.229Z,3.33
2019-05-11T03:47:03.254Z,3.10
2019-05-11T03:49:29.299Z,3.00
2019-05-11T03:51:55.311Z,2.30
2019-05-11T03:54:21.356Z,2.50
2019-05-11T03:56:47.397Z,2.60
2019-05-11T03:59:13.420Z,2.63
2019-05-11T04:01:39.437Z,3.20
2019-05-11T04:04:05.473Z,2.33
2019-05-11T04:06:31.588Z,2.73
2019-05-11T04:08:57.756Z,2.50
2019-05-11T04:11:23.788Z,2.50
2019-05-11T04:13:49.829Z,2.50
2019-05-11T04:16:15.906Z,2.72
2019-05-11T04:18:41.981Z,2.70
2019-05-11T04:21:08.000Z,2.50
2019-05-11T04:23:34.013Z,2.30
2019-05-11T04:26:00.047Z,2.00
2019-05-11T04:28:26.077Z,2.40
2019-05-11T04:30:52.099Z,2.27
2019-05-11T04:33:18.109Z,2.30
2019-05-11T04:36:04.121Z,3.60
2019-05-11T04:38:30.172Z,2.50
2019-05-11T04:40:56.207Z,3.10
2019-05-11T04:43:22.221Z,2.20
2019-05-11T04:45:48.273Z,2.97
2019-05-11T04:48:14.292Z,3.10
2019-05-11T04:50:40.330Z,2.43
2019-05-11T04:53:06.381Z,2.00
2019-05-11T04:55:32.416Z,2.70
2019-05-11T04:57:58.431Z,2.20
2019-05-11T05:00:25.575Z,1.80
2019-05-11T05:02:51.602Z,2.20
2019-05-11T05:05:17.683Z,1.73
2019-05-11T05:07:48.985Z,1.83
2019-05-11T05:10:14.092Z,1.97
2019-05-11T05:12:39.974Z,2.40
2019-05-11T05:15:06.116Z,2.13
2019-05-11T05:17:32.143Z,1.60
2019-05-11T05:19:58.519Z,2.10
2019-05-11T05:22:27.766Z,2.10
2019-05-11T05:24:52.487Z,1.73
2019-05-11T05:27:18.503Z,1.50
2019-05-11T05:29:44.555Z,1.70
2019-05-11T05:32:10.622Z,1.57
2019-05-11T05:34:36.696Z,1.63
2019-05-11T05:37:02.718Z,1.23
2019-05-11T05:39:28.723Z,1.60
2019-05-11T05:41:57.275Z,1.60
2019-05-11T05:44:22.739Z,2.00
2019-05-11T05:46:48.887Z,1.90
2019-05-11T05:49:14.961Z,1.13
2019-05-11T05:51:41.509Z,1.40
2019-05-11T05:54:07.654Z,2.03
2019-05-11T05:56:33.776Z,1.30
2019-05-11T05:58:59.812Z,1.20
2019-05-11T06:01:25.947Z,1.20
2019-05-11T06:03:52.010Z,1.23
2019-05-11T06:06:18.160Z,1.47
2019-05-11T06:08:44.208Z,1.10
2019-05-11T06:11:10.249Z,0.93
2019-05-11T06:13:45.287Z,1.10
2019-05-11T06:16:04.256Z,1.35
2019-05-11T06:18:30.312Z,1.73
2019-05-11T06:20:56.345Z,1.23
2019-05-11T06:23:22.469Z,1.17
2019-05-11T06:25:48.562Z,1.30
2019-05-11T06:28:14.661Z,1.00
2019-05-11T06:30:40.748Z,1.10
2019-05-11T06:33:06.763Z,1.30
2019-05-11T06:35:32.856Z,1.00
2019-05-11T06:37:58.874Z,1.03
2019-05-11T06:40:28.343Z,0.93
2019-05-11T06:42:52.856Z,1.20
2019-05-11T06:45:18.862Z,0.80
2019-05-11T06:47:45.234Z,0.80
2019-05-11T06:50:11.673Z,1.27
2019-05-11T06:52:40.036Z,0.90
2019-05-11T06:55:09.505Z,0.97
2019-05-11T06:57:37.692Z,0.50
2019-05-11T07:00:04.024Z,0.90
2019-05-11T07:02:30.071Z,0.80
2019-05-11T07:04:56.066Z,0.93
2019-05-11T07:07:22.107Z,1.27
2019-05-11T07:09:48.113Z,1.50
2019-05-11T07:12:14.327Z,0.93
2019-05-11T07:14:40.388Z,0.97
2019-05-11T07:17:06.426Z,0.93
2019-05-11T07:19:32.438Z,0.90
2019-05-11T07:21:58.499Z,0.80
2019-05-11T07:24:24.517Z,0.80
2019-05-11T07:26:53.736Z,0.80
2019-05-11T07:29:19.757Z,0.80
2019-05-11T07:31:45.783Z,0.60
2019-05-11T07:34:12.316Z,0.93
2019-05-11T07:36:38.891Z,0.77
2019-05-11T07:39:05.363Z,0.60
2019-05-11T07:41:34.420Z,0.70
2019-05-11T07:44:00.437Z,0.63
2019-05-11T07:46:28.578Z,0.80
2019-05-11T07:48:54.399Z,0.70
2019-05-11T07:51:20.412Z,0.50
2019-05-11T07:53:48.559Z,0.90
2019-05-11T07:56:14.392Z,0.50
2019-05-11T07:58:40.435Z,0.77
2019-05-11T08:01:08.513Z,0.70
2019-05-11T08:03:34.395Z,1.43
2019-05-11T08:06:02.794Z,0.83
2019-05-11T08:08:28.496Z,1.03
2019-05-11T08:10:54.656Z,0.97
2019-05-11T08:13:20.794Z,1.00
2019-05-11T08:15:48.828Z,1.07
2019-05-11T08:18:14.827Z,1.30
2019-05-11T08:20:40.964Z,0.73
2019-05-11T08:23:09.049Z,0.87
2019-05-11T08:25:35.135Z,0.77
2019-05-11T08:28:01.228Z,0.40
2019-05-11T08:30:27.890Z,0.70
2019-05-11T08:32:54.176Z,0.80
2019-05-11T08:35:20.198Z,0.60
2019-05-11T08:37:47.874Z,0.50
2019-05-11T08:40:18.120Z,0.60
2019-05-11T08:42:43.883Z,0.30
2019-05-11T08:45:20.365Z,0.60
2019-05-11T08:48:15.159Z,0.50
2019-05-11T08:51:04.177Z,0.60
2019-05-11T08:53:40.968Z,0.78
2019-05-11T08:56:13.328Z,0.50
2019-05-11T08:58:41.697Z,0.50
2019-05-11T09:01:31.891Z,0.50
2019-05-11T09:03:59.984Z,0.53
2019-05-11T09:06:28.493Z,0.33
2019-05-11T09:08:54.845Z,0.50
2019-05-11T09:11:20.999Z,0.60
2019-05-11T09:13:48.974Z,0.97
2019-05-11T09:16:31.825Z,0.40
2019-05-11T09:18:49.951Z,0.50
2019-05-11T09:21:19.464Z,0.43
2019-05-11T09:23:57.671Z,0.57
2019-05-11T09:26:35.911Z,0.40
2019-05-11T09:29:08.925Z,0.50
2019-05-11T09:31:58.577Z,0.47
2019-05-11T09:34:33.225Z,0.30
2019-05-11T09:38:30.094Z,0.60
2019-05-11T09:40:00.509Z,0.40
2019-05-11T09:45:18.650Z,0.37
2019-05-11T09:47:49.520Z,0.20
2019-05-11T09:50:17.939Z,0.40
2019-05-11T09:52:43.784Z,0.33
2019-05-11T09:55:10.051Z,0.40
2019-05-11T09:57:38.196Z,0.37
2019-05-11T10:00:10.067Z,0.50
2019-05-11T10:02:38.339Z,0.40
2019-05-11T10:05:08.270Z,0.40
2019-05-11T10:07:34.095Z,0.33
2019-05-11T10:10:00.140Z,0.30
2019-05-11T10:12:28.474Z,0.40
2019-05-11T10:14:54.187Z,0.20
2019-05-11T10:17:20.210Z,0.40
2019-05-11T10:19:47.509Z,0.40
2019-05-11T10:22:14.180Z,0.60
2019-05-11T10:24:40.226Z,0.30
2019-05-11T10:27:08.430Z,0.60
2019-05-11T10:29:37.707Z,0.70
2019-05-11T10:32:03.585Z,0.70
2019-05-11T10:34:29.627Z,0.40
2019-05-11T10:36:57.775Z,0.30
2019-05-11T10:39:23.734Z,0.40
2019-05-11T10:41:50.903Z,0.70
2019-05-11T10:44:19.948Z,0.40
2019-05-11T10:46:48.210Z,0.45
2019-05-11T10:49:14.104Z,0.90
2019-05-11T10:51:40.146Z,0.40
2019-05-11T10:54:08.435Z,0.70
2019-05-11T10:56:34.091Z,0.30
2019-05-11T10:59:00.296Z,0.40
2019-05-11T11:01:28.405Z,0.47
2019-05-11T11:03:54.465Z,0.40
2019-05-11T11:06:21.926Z,0.30
2019-05-11T11:08:48.851Z,0.30
2019-05-11T11:11:15.004Z,0.50
2019-05-11T11:13:41.021Z,0.40
2019-05-11T11:16:08.391Z,0.30
2019-05-11T11:18:34.841Z,0.30
2019-05-11T11:21:02.606Z,0.67
2019-05-11T11:23:30.604Z,0.30
2019-05-11T11:25:58.513Z,0.30
2019-05-11T11:28:24.684Z,0.37
2019-05-11T11:30:50.873Z,0.30
2019-05-11T11:33:18.386Z,0.20
2019-05-11T11:35:47.764Z,0.30
2019-05-11T11:38:13.927Z,0.30
2019-05-11T11:40:42.777Z,0.30
2019-05-11T11:43:08.654Z,0.30
2019-05-11T11:45:34.884Z,0.50
2019-05-11T11:48:00.919Z,0.20
2019-05-11T11:50:28.360Z,0.27
2019-05-11T11:53:14.639Z,0.30
2019-05-11T11:55:40.735Z,0.50
2019-05-11T11:58:08.290Z,0.20
2019-05-11T12:00:34.608Z,0.30
2019-05-11T12:03:00.678Z,0.27
2019-05-11T12:05:28.291Z,0.20
2019-05-11T12:07:54.530Z,0.40
2019-05-11T12:10:20.585Z,0.20
2019-05-11T12:12:47.572Z,0.40
2019-05-11T12:15:14.051Z,0.20
2019-05-11T12:17:40.067Z,0.23
2019-05-11T12:20:08.732Z,0.20
2019-05-11T12:22:34.468Z,0.30
2019-05-11T12:25:02.060Z,0.43
2019-05-11T12:27:28.678Z,0.27
2019-05-11T12:29:54.971Z,0.20
2019-05-11T12:32:22.895Z,0.60
2019-05-11T12:34:48.920Z,0.30
2019-05-11T12:37:14.962Z,0.40
2019-05-11T12:39:40.974Z,0.60
2019-05-11T12:42:08.633Z,0.40
2019-05-11T12:44:34.812Z,0.40
2019-05-11T12:47:01.192Z,0.30
2019-05-11T12:49:28.987Z,0.37
2019-05-11T12:51:55.260Z,0.30
2019-05-11T12:54:21.270Z,0.30
2019-05-11T12:56:48.942Z,0.40
2019-05-11T12:59:15.358Z,0.40
2019-05-11T13:01:41.583Z,0.40
2019-05-11T13:04:08.866Z,0.43
2019-05-11T13:06:35.343Z,0.37
2019-05-11T13:09:01.355Z,0.30
2019-05-11T13:11:28.602Z,0.20
2019-05-11T13:13:54.795Z,0.27
2019-05-11T13:16:20.827Z,0.33
2019-05-11T13:18:48.706Z,0.30
2019-05-11T13:21:14.778Z,0.30
2019-05-11T13:23:40.795Z,0.20
2019-05-11T13:26:08.717Z,0.30
2019-05-11T13:28:34.738Z,0.30
2019-05-11T13:31:01.516Z,0.20
2019-05-11T13:33:28.026Z,0.17
2019-05-11T13:35:54.275Z,0.20
2019-05-11T13:38:20.536Z,0.40
2019-05-11T13:40:48.793Z,0.30
2019-05-11T13:43:14.518Z,0.40
2019-05-11T13:45:40.707Z,0.33
2019-05-11T13:48:08.448Z,0.40
2019-05-11T13:50:34.684Z,0.47
2019-05-11T13:53:01.071Z,0.60
2019-05-11T13:55:28.464Z,0.70
2019-05-11T13:57:54.614Z,1.30
2019-05-11T14:00:20.771Z,0.43
2019-05-11T14:02:48.538Z,0.50
2019-05-11T14:08:07.905Z,0.57
2019-05-11T14:10:33.520Z,0.57
2019-05-11T14:12:59.541Z,0.23
2019-05-11T14:15:27.883Z,0.27
2019-05-11T14:18:05.627Z,0.30
2019-05-11T14:20:21.465Z,0.20
2019-05-11T14:22:48.009Z,0.30
2019-05-11T14:25:14.243Z,0.30
2019-05-11T14:27:40.380Z,0.20
2019-05-11T14:30:08.559Z,0.30
2019-05-11T14:32:34.839Z,0.30
2019-05-11T14:35:00.963Z,0.70
2019-05-11T14:37:28.573Z,0.40
2019-05-11T14:39:54.719Z,0.40
2019-05-11T14:42:22.281Z,0.30
2019-05-11T14:44:48.589Z,0.23
2019-05-11T14:47:14.655Z,0.27
2019-05-11T14:49:40.711Z,0.23
2019-05-11T14:52:08.310Z,0.33
2019-05-11T14:54:34.566Z,0.20
2019-05-11T14:57:01.648Z,0.13
2019-05-11T14:59:28.560Z,0.30
2019-05-11T15:01:55.005Z,0.40
2019-05-11T15:04:21.044Z,0.23
2019-05-11T15:06:49.025Z,0.30
2019-05-11T15:09:15.028Z,0.37
2019-05-11T15:11:41.109Z,0.30
2019-05-11T15:14:08.203Z,0.30
2019-05-11T15:16:34.418Z,0.27
2019-05-11T15:19:02.133Z,0.40
2019-05-11T15:21:28.204Z,0.30
2019-05-11T15:23:54.300Z,0.27
2019-05-11T15:26:20.319Z,0.40
2019-05-11T15:28:48.336Z,0.47
2019-05-11T15:31:14.328Z,0.40
2019-05-11T15:33:40.364Z,0.60
2019-05-11T15:36:07.599Z,0.70
2019-05-11T15:38:33.963Z,0.50
2019-05-11T15:41:00.284Z,0.40
2019-05-11T15:43:28.186Z,0.50
2019-05-11T15:45:54.256Z,0.40
2019-05-11T15:48:20.342Z,0.50
2019-05-11T15:50:48.516Z,0.40
2019-05-11T15:53:14.354Z,0.40
2019-05-11T15:55:42.407Z,0.60
2019-05-11T15:58:08.363Z,0.70
2019-05-11T16:00:34.377Z,0.80
2019-05-11T16:03:00.419Z,1.00
2019-05-11T16:05:27.990Z,1.07
2019-05-11T16:07:54.379Z,1.20
2019-05-11T16:10:20.420Z,1.20
2019-05-11T16:12:48.647Z,1.00
2019-05-11T16:15:14.586Z,1.27
2019-05-11T16:17:40.607Z,1.40
2019-05-11T16:20:08.842Z,1.10
2019-05-11T16:22:34.971Z,1.27
2019-05-11T16:25:01.868Z,1.60
2019-05-11T16:27:28.505Z,1.57
2019-05-11T16:29:54.823Z,1.60
2019-05-11T16:32:21.544Z,1.30
2019-05-11T16:34:47.579Z,1.63
2019-05-11T16:37:13.618Z,1.90
2019-05-11T16:39:39.647Z,2.20
2019-05-11T16:42:08.300Z,2.00
2019-05-11T16:44:33.615Z,2.53
2019-05-11T16:46:59.631Z,2.60
2019-05-11T16:49:31.577Z,2.47
2019-05-11T16:51:53.571Z,2.67
2019-05-11T16:54:19.702Z,2.53
2019-05-11T16:56:45.754Z,2.60
2019-05-11T16:59:11.796Z,3.07
2019-05-11T17:01:38.132Z,3.17
2019-05-11T17:04:04.276Z,3.17
2019-05-11T17:06:31.954Z,2.97
2019-05-11T17:08:58.604Z,3.30
2019-05-11T17:11:24.624Z,4.00
2019-05-11T17:13:50.776Z,4.10
2019-05-11T17:16:17.930Z,3.90
2019-05-11T17:18:44.239Z,3.73
2019-05-11T17:21:10.263Z,4.70
2019-05-11T17:23:38.373Z,5.13
2019-05-11T17:26:04.231Z,5.43
2019-05-11T17:28:30.259Z,5.77
2019-05-11T17:30:58.689Z,5.87
2019-05-11T17:33:24.239Z,6.30
2019-05-11T17:35:50.291Z,5.67
2019-05-11T17:38:18.293Z,6.27
2019-05-11T17:40:44.287Z,5.63
2019-05-11T17:43:13.007Z,5.70
2019-05-11T17:45:39.068Z,5.83
2019-05-11T17:48:05.206Z,6.00
2019-05-11T17:50:31.768Z,6.67
2019-05-11T17:52:57.798Z,6.10
2019-05-11T17:55:23.840Z,6.40
2019-05-11T17:57:53.731Z,7.00
2019-05-11T18:00:20.019Z,5.53
2019-05-11T18:02:48.817Z,5.60
2019-05-11T18:05:14.378Z,5.60
2019-05-11T18:07:40.418Z,6.90
2019-05-11T18:10:08.232Z,6.67
2019-05-11T18:12:34.606Z,6.93
2019-05-11T18:15:02.101Z,6.67
2019-05-11T18:17:28.111Z,6.60
2019-05-11T18:19:54.159Z,7.37
2019-05-11T18:22:20.176Z,8.20
2019-05-11T18:24:48.864Z,7.03
2019-05-11T18:27:14.396Z,7.60
2019-05-11T18:29:40.430Z,9.57
2019-05-11T18:32:06.466Z,10.75
2019-05-11T18:34:32.579Z,9.47
2019-05-11T18:36:58.651Z,8.73
2019-05-11T18:39:24.664Z,8.00
2019-05-11T18:41:50.765Z,8.67
2019-05-11T18:44:18.725Z,9.30
2019-05-11T18:46:44.801Z,9.50
2019-05-11T18:49:10.880Z,9.17
2019-05-11T18:51:37.819Z,9.83
2019-05-11T18:54:05.158Z,10.23
2019-05-11T18:56:31.195Z,11.80
2019-05-11T18:58:58.339Z,11.40
2019-05-11T19:01:24.563Z,11.30
2019-05-11T19:03:50.590Z,13.28
2019-05-11T19:06:18.404Z,9.93
2019-05-11T19:08:44.571Z,9.87
2019-05-11T19:11:10.607Z,9.40
2019-05-11T19:13:38.578Z,8.83
2019-05-11T19:16:04.575Z,10.10
2019-05-11T19:18:30.595Z,10.90
2019-05-11T19:20:58.668Z,11.77
2019-05-11T19:23:24.537Z,12.47
2019-05-11T19:25:50.567Z,12.50
2019-05-11T19:28:18.642Z,13.57
2019-05-11T19:30:44.748Z,14.20
2019-05-11T19:33:11.207Z,15.23
2019-05-11T19:35:37.952Z,15.67
2019-05-11T19:38:04.075Z,15.93
2019-05-11T19:40:30.102Z,17.33
2019-05-11T19:42:58.733Z,16.10
2019-05-11T19:45:24.570Z,15.30
2019-05-11T19:47:51.533Z,14.77
2019-05-11T19:50:17.574Z,13.40
2019-05-11T19:52:43.687Z,15.73
2019-05-11T19:55:09.727Z,16.60
2019-05-11T19:57:35.849Z,15.70
2019-05-11T20:00:07.909Z,15.93
2019-05-11T20:02:34.119Z,15.30
2019-05-11T20:05:00.144Z,19.83
2019-05-11T20:07:26.175Z,15.43
2019-05-11T20:09:52.188Z,14.37
2019-05-11T20:12:18.233Z,13.83
2019-05-11T20:14:44.322Z,14.77
2019-05-11T20:17:10.360Z,14.90
2019-05-11T20:19:38.411Z,13.80
2019-05-11T20:22:04.380Z,15.03
2019-05-11T20:24:30.415Z,15.37
2019-05-11T20:26:56.470Z,15.30
2019-05-11T20:29:22.467Z,19.55
2019-05-11T20:31:48.529Z,16.73
2019-05-11T20:34:14.544Z,16.43
2019-05-11T20:36:40.587Z,14.93
2019-05-11T20:39:06.699Z,15.50
2019-05-11T20:41:32.747Z,16.67
2019-05-11T20:43:58.761Z,18.37
2019-05-11T20:46:24.813Z,18.57
2019-05-11T20:48:50.818Z,20.27
2019-05-11T20:51:32.501Z,19.23
2019-05-11T20:53:46.915Z,20.20
2019-05-11T20:56:13.408Z,20.17
2019-05-11T20:58:59.443Z,21.13
2019-05-11T21:01:28.330Z,22.37
2019-05-11T21:03:53.968Z,23.73
2019-05-11T21:06:21.049Z,24.80
2019-05-11T21:08:48.187Z,24.57
2019-05-11T21:11:14.404Z,24.77
2019-05-11T21:13:40.420Z,24.13
2019-05-11T21:16:08.195Z,23.93
2019-05-11T21:18:34.375Z,24.17
2019-05-11T21:21:00.395Z,25.23
2019-05-11T21:23:28.812Z,26.67
2019-05-11T21:25:55.171Z,26.73
2019-05-11T21:28:21.812Z,24.60
2019-05-11T21:30:48.178Z,35.52
2019-05-11T21:33:14.359Z,29.47
2019-05-11T21:35:40.376Z,28.77
2019-05-11T21:38:06.419Z,26.17
2019-05-11T21:40:32.427Z,27.97
2019-05-11T21:42:58.520Z,27.50
2019-05-11T21:45:24.552Z,28.07
2019-05-11T21:47:50.615Z,29.77
2019-05-11T21:50:18.858Z,29.23
2019-05-11T21:52:44.796Z,28.63
2019-05-11T21:55:10.923Z,27.43
2019-05-11T21:57:36.990Z,31.77
2019-05-11T22:00:08.818Z,33.67
2019-05-11T22:02:35.177Z,23.90
2019-05-11T22:05:03.134Z,24.40
2019-05-11T22:07:29.159Z,27.00
2019-05-11T22:09:55.172Z,28.07
2019-05-11T22:12:21.209Z,27.30
2019-05-11T22:14:48.883Z,26.67
2019-05-11T22:17:15.055Z,26.63
2019-05-11T22:20:01.275Z,29.07
2019-05-11T22:22:28.674Z,28.97
2019-05-11T22:24:55.050Z,27.80
2019-05-11T22:27:21.173Z,28.33
2019-05-11T22:29:48.446Z,25.83
2019-05-11T22:32:14.579Z,30.63
2019-05-11T22:34:40.717Z,29.50
2019-05-11T22:37:08.677Z,28.27
2019-05-11T22:39:34.804Z,26.93
2019-05-11T22:42:00.819Z,28.23
2019-05-11T22:44:27.924Z,26.37
2019-05-11T22:46:54.058Z,28.77
2019-05-11T22:49:20.197Z,27.40
2019-05-11T22:51:46.222Z,24.57
2019-05-11T22:54:12.248Z,20.63
2019-05-11T22:56:38.271Z,22.37
2019-05-11T22:59:04.296Z,24.13
2019-05-11T23:01:30.320Z,25.53
2019-05-11T23:03:58.343Z,24.27
2019-05-11T23:06:24.292Z,24.90
2019-05-11T23:08:54.065Z,25.23
2019-05-11T23:11:18.371Z,21.90
2019-05-11T23:13:44.403Z,24.03
2019-05-11T23:16:10.419Z,25.17
2019-05-11T23:18:38.868Z,26.83
2019-05-11T23:21:04.464Z,27.53
2019-05-11T23:23:30.787Z,25.90
2019-05-11T23:25:57.979Z,28.87
2019-05-11T23:28:24.244Z,29.33
2019-05-11T23:30:50.255Z,28.40
2019-05-11T23:33:18.293Z,28.67
2019-05-11T23:35:44.227Z,29.10
2019-05-11T23:38:10.238Z,27.60
2019-05-11T23:40:37.878Z,26.90
2019-05-11T23:43:04.248Z,29.77
2019-05-11T23:45:30.295Z,29.57
2019-05-11T23:47:58.661Z,29.87
2019-05-11T23:50:24.233Z,29.20
2019-05-11T23:53:04.210Z,29.47
2019-05-11T23:55:19.064Z,30.70
2019-05-11T23:57:45.495Z,28.03
